Time;durP1;ratioP1;P1;durP2;ratioP2;P2;SDS_P1;SDS_P2;PMS_P1;PMS_P2;Temp;Humidity;BMP_temperature;BMP_pressure;BME280_temperature;BME280_humidity;BME280_pressure;Samples;Min_cycle;Max_cycle;Signal;HPM_P1;HPM_P2
2022/05/29 00:02:09;;;;;;;14.48;4.07;;;10.10;99.90;;;;;;4994625;28;20034;-83
2022/05/29 00:04:40;;;;;;;11.77;3.38;;;10.10;99.90;;;;;;5005347;28;20542;-85
2022/05/29 00:07:09;;;;;;;14.80;2.80;;;10.10;99.90;;;;;;4987524;28;20057;-84
2022/05/29 00:09:52;;;;;;;14.10;3.03;;;10.10;99.90;;;;;;4970326;28;20189;-84
2022/05/29 00:12:20;;;;;;;12.00;3.05;;;11.50;99.90;;;;;;4990521;28;20052;-83
2022/05/29 00:14:48;;;;;;;12.30;3.30;;;11.60;99.90;;;;;;4991448;28;20048;-84
2022/05/29 00:17:18;;;;;;;11.30;2.60;;;10.10;99.90;;;;;;5003225;28;20104;-84
2022/05/29 00:19:44;;;;;;;15.20;3.40;;;6.80;99.90;;;;;;4977566;28;20422;-84
2022/05/29 00:22:13;;;;;;;13.80;3.30;;;10.10;99.90;;;;;;4988526;28;20096;-84
2022/05/29 00:24:41;;;;;;;13.45;2.72;;;10.10;99.90;;;;;;4977535;28;20037;-85
2022/05/29 00:27:11;;;;;;;10.82;2.80;;;10.10;99.90;;;;;;4971661;28;20038;-84
2022/05/29 00:29:38;;;;;;;11.80;3.00;;;10.10;99.90;;;;;;4996804;28;20065;-85
2022/05/29 00:32:05;;;;;;;12.43;3.10;;;10.10;99.90;;;;;;4989403;28;20085;-83
2022/05/29 00:34:36;;;;;;;10.98;2.97;;;9.50;99.90;;;;;;5010819;28;20497;-85
2022/05/29 00:37:07;;;;;;;13.30;3.25;;;10.10;99.90;;;;;;5008376;28;20053;-84
2022/05/29 00:39:36;;;;;;;11.93;2.70;;;10.10;99.90;;;;;;5006306;28;20116;-85
2022/05/29 00:42:07;;;;;;;11.30;3.00;;;10.10;99.90;;;;;;4989347;28;20033;-86
2022/05/29 00:44:47;;;;;;;13.73;3.38;;;10.20;99.90;;;;;;4971828;28;20042;-85
2022/05/29 00:47:21;;;;;;;13.63;3.20;;;10.10;99.90;;;;;;4974907;28;20104;-85
2022/05/29 00:49:49;;;;;;;21.08;3.60;;;10.20;99.90;;;;;;4969278;28;20065;-84
2022/05/29 00:52:19;;;;;;;14.05;3.60;;;;;;;;;;4989199;28;20050;-85
2022/05/29 00:55:02;;;;;;;13.15;3.53;;;10.10;99.90;;;;;;4989335;28;20085;-85
2022/05/29 00:57:31;;;;;;;;;;;10.10;99.90;;;;;;4981147;28;20084;-84
2022/05/29 01:00:03;;;;;;;11.05;2.88;;;10.10;99.90;;;;;;4995826;28;19921;-84
2022/05/29 01:02:29;;;;;;;12.15;3.13;;;10.10;99.90;;;;;;4996217;28;20362;-84
2022/05/29 01:04:57;;;;;;;16.98;4.28;;;10.10;99.90;;;;;;4996640;28;20075;-84
2022/05/29 01:07:25;;;;;;;14.85;3.35;;;10.20;99.90;;;;;;5003601;28;20413;-84
2022/05/29 01:09:53;;;;;;;17.55;3.85;;;10.20;99.90;;;;;;5009176;28;20042;-85
2022/05/29 01:12:37;;;;;;;13.50;3.33;;;10.20;99.90;;;;;;4993517;28;20112;-83
2022/05/29 01:15:22;;;;;;;12.82;3.15;;;10.20;99.90;;;;;;5002782;28;20500;-85
2022/05/29 01:18:12;;;;;;;11.73;3.40;;;10.20;99.90;;;;;;4994628;28;20042;-84
2022/05/29 01:21:07;;;;;;;16.50;3.83;;;10.30;99.90;;;;;;5009308;28;20044;-84
2022/05/29 01:24:03;;;;;;;14.05;3.17;;;10.30;99.90;;;;;;4981846;28;20046;-84
2022/05/29 01:27:05;;;;;;;14.00;3.20;;;12.00;99.90;;;;;;5005452;28;20041;-85
2022/05/29 01:29:38;;;;;;;11.77;2.60;;;10.30;99.90;;;;;;4985694;28;20042;-85
2022/05/29 01:32:17;;;;;;;13.20;2.80;;;11.40;99.90;;;;;;5007073;28;20038;-85
2022/05/29 01:34:54;;;;;;;11.77;2.85;;;10.40;99.90;;;;;;4976664;28;20037;-84
2022/05/29 01:37:25;;;;;;;13.18;2.90;;;10.40;99.90;;;;;;5010074;28;20053;-85
2022/05/29 01:40:04;;;;;;;15.23;3.03;;;10.40;99.90;;;;;;4985925;28;20497;-84
2022/05/29 01:42:57;;;;;;;13.35;3.55;;;10.40;99.90;;;;;;4987085;28;20037;-86
2022/05/29 01:46:02;;;;;;;13.90;3.25;;;10.40;99.90;;;;;;4981566;28;20205;-84
2022/05/29 01:48:46;;;;;;;10.93;2.70;;;10.40;99.90;;;;;;5000691;28;20046;-85
2022/05/29 01:51:24;;;;;;;14.20;3.70;;;10.40;99.90;;;;;;4995054;28;20041;-83
2022/05/29 01:54:01;;;;;;;13.75;3.42;;;10.40;99.90;;;;;;4966956;28;20042;-85
2022/05/29 01:56:41;;;;;;;11.18;2.95;;;10.40;99.90;;;;;;4993311;28;20039;-84
2022/05/29 01:59:24;;;;;;;13.35;3.47;;;10.40;99.90;;;;;;4960608;28;20050;-85
2022/05/29 02:01:59;;;;;;;15.90;3.50;;;10.40;99.90;;;;;;4986194;28;20096;-84
2022/05/29 02:04:30;;;;;;;16.45;3.42;;;10.40;99.90;;;;;;4982844;28;20512;-85
2022/05/29 02:09:56;;;;;;;17.30;3.45;;;10.40;99.90;;;;;;4992425;28;20060;-84
2022/05/29 02:12:27;;;;;;;12.63;2.80;;;10.30;99.90;;;;;;5002916;28;20054;-85
2022/05/29 02:15:06;;;;;;;16.25;3.30;;;9.80;99.90;;;;;;4971999;28;20077;-85
2022/05/29 02:17:40;;;;;;;15.38;3.42;;;10.40;99.90;;;;;;4981118;28;20046;-83
2022/05/29 02:20:25;;;;;;;14.70;3.38;;;10.50;99.90;;;;;;4981912;28;20034;-85
2022/05/29 02:23:00;;;;;;;14.43;3.97;;;10.30;99.90;;;;;;5008387;28;20053;-85
2022/05/29 02:25:27;;;;;;;12.80;2.90;;;10.30;99.90;;;;;;5009264;28;20046;-85
2022/05/29 02:28:02;;;;;;;13.55;2.90;;;10.30;99.90;;;;;;4987143;28;20085;-86
2022/05/29 02:30:41;;;;;;;12.35;2.72;;;10.30;99.90;;;;;;4996915;28;20118;-85
2022/05/29 02:33:12;;;;;;;14.65;3.30;;;10.30;99.90;;;;;;4981442;28;20042;-85
2022/05/29 02:36:23;;;;;;;12.80;2.97;;;10.30;99.90;;;;;;4986692;28;20177;-85
2022/05/29 02:39:16;;;;;;;12.27;3.00;;;10.40;99.90;;;;;;4987685;28;20488;-84
2022/05/29 02:42:17;;;;;;;11.57;3.38;;;9.00;99.90;;;;;;4982585;28;20375;-85
2022/05/29 02:44:59;;;;;;;12.40;3.13;;;10.30;99.90;;;;;;4986722;28;20528;-84
2022/05/29 02:47:49;;;;;;;14.50;3.50;;;10.30;99.90;;;;;;4990813;28;20049;-85
2022/05/29 02:50:25;;;;;;;11.75;3.20;;;10.00;99.90;;;;;;4969314;28;20443;-85
2022/05/29 02:52:57;;;;;;;10.93;2.83;;;9.30;99.90;;;;;;4983027;28;20054;-86
2022/05/29 02:55:24;;;;;;;13.10;3.43;;;10.10;99.90;;;;;;4982677;28;20081;-87
2022/05/29 02:57:59;;;;;;;14.52;3.25;;;10.00;99.90;;;;;;4983995;28;20132;-86
2022/05/29 03:00:38;;;;;;;10.80;2.85;;;10.00;99.90;;;;;;4971716;28;20045;-87
2022/05/29 03:03:28;;;;;;;17.58;3.17;;;10.00;99.90;;;;;;4991167;28;20073;-84
2022/05/29 03:06:23;;;;;;;13.95;3.78;;;10.00;99.90;;;;;;4987832;28;20034;-86
2022/05/29 03:09:09;;;;;;;15.52;3.40;;;9.90;99.90;;;;;;4988103;28;20081;-85
2022/05/29 03:11:39;;;;;;;17.45;3.63;;;9.90;99.90;;;;;;4989570;28;20107;-85
2022/05/29 03:14:28;;;;;;;14.93;3.25;;;9.90;99.90;;;;;;5003513;28;20180;-85
2022/05/29 03:17:15;;;;;;;11.38;3.40;;;9.90;99.90;;;;;;5001863;28;20077;-84
2022/05/29 03:20:07;;;;;;;14.38;3.45;;;9.90;99.90;;;;;;4972217;28;20038;-84
2022/05/29 03:22:39;;;;;;;16.00;3.83;;;9.90;99.90;;;;;;4971296;28;20046;-84
2022/05/29 03:25:14;;;;;;;13.77;3.22;;;9.90;99.90;;;;;;4975198;28;21255;-85
2022/05/29 03:27:47;;;;;;;16.65;3.42;;;10.00;99.90;;;;;;5004397;28;20038;-85
2022/05/29 03:30:28;;;;;;;12.23;3.30;;;10.00;99.90;;;;;;4970301;28;20149;-84
2022/05/29 03:32:58;;;;;;;13.05;3.67;;;10.00;99.90;;;;;;5006508;28;20695;-85
2022/05/29 03:35:26;;;;;;;12.02;2.67;;;10.00;99.90;;;;;;4971472;28;20193;-85
2022/05/29 03:37:54;;;;;;;15.63;3.13;;;10.00;99.90;;;;;;4983289;28;20058;-85
2022/05/29 03:40:23;;;;;;;12.93;2.90;;;9.70;99.90;;;;;;5008081;28;20117;-84
2022/05/29 03:42:49;;;;;;;14.13;2.80;;;10.00;99.90;;;;;;4974478;28;20622;-82
2022/05/29 03:45:15;;;;;;;15.55;2.85;;;10.00;99.90;;;;;;4990697;28;20042;-84
2022/05/29 03:47:41;;;;;;;13.95;3.03;;;10.00;99.90;;;;;;4986938;28;20054;-85
2022/05/29 03:50:10;;;;;;;11.65;2.95;;;10.00;99.90;;;;;;4992150;28;20072;-85
2022/05/29 03:52:36;;;;;;;18.33;3.20;;;10.00;99.90;;;;;;4996181;28;20047;-84
2022/05/29 03:55:03;;;;;;;9.73;2.40;;;10.10;99.90;;;;;;4975743;28;20489;-84
2022/05/29 03:57:31;;;;;;;11.48;2.92;;;10.00;99.90;;;;;;4974484;28;20477;-84
2022/05/29 03:59:57;;;;;;;13.40;2.78;;;10.00;99.90;;;;;;4955420;28;20392;-85
2022/05/29 04:02:23;;;;;;;12.40;2.80;;;9.90;99.90;;;;;;4987347;28;20041;-84
2022/05/29 04:04:49;;;;;;;13.93;2.80;;;9.90;99.90;;;;;;4987233;28;20030;-83
2022/05/29 04:07:16;;;;;;;11.63;2.90;;;8.80;99.90;;;;;;4986215;28;20145;-84
2022/05/29 04:12:26;;;;;;;11.27;3.05;;;9.80;99.90;;;;;;4980588;28;20038;-84
2022/05/29 04:15:01;;;;;;;13.10;2.83;;;9.90;99.90;;;;;;4956400;28;20473;-84
2022/05/29 04:17:26;;;;;;;11.05;2.58;;;10.00;99.90;;;;;;4950369;28;20045;-84
2022/05/29 04:19:52;;;;;;;11.90;2.75;;;10.00;99.90;;;;;;4983572;28;20393;-83
2022/05/29 04:22:22;;;;;;;12.95;2.63;;;10.00;99.90;;;;;;4969139;28;20047;-84
2022/05/29 04:24:48;;;;;;;13.63;2.65;;;10.00;99.90;;;;;;4981845;28;20133;-84
2022/05/29 04:27:18;;;;;;;12.40;2.92;;;10.00;99.90;;;;;;4959338;28;20038;-83
2022/05/29 04:29:44;;;;;;;16.27;3.35;;;10.00;99.90;;;;;;4984560;28;20065;-85
2022/05/29 04:34:55;;;;;;;12.68;3.03;;;10.10;99.90;;;;;;4969962;28;20236;-85
2022/05/29 04:37:22;;;;;;;11.90;2.60;;;10.10;99.90;;;;;;4988665;28;20035;-87
2022/05/29 04:39:48;;;;;;;14.80;2.63;;;10.10;99.90;;;;;;4978631;28;20508;-83
2022/05/29 04:42:14;;;;;;;13.35;2.85;;;10.10;99.90;;;;;;4968707;28;20135;-83
2022/05/29 04:44:40;;;;;;;13.40;2.90;;;10.20;99.90;;;;;;4976241;28;20519;-82
2022/05/29 04:47:06;;;;;;;10.45;3.05;;;7.70;99.90;;;;;;4936500;28;20038;-84
2022/05/29 04:49:32;;;;;;;13.27;2.90;;;10.00;99.90;;;;;;4965904;28;20073;-83
2022/05/29 04:51:57;;;;;;;13.55;2.88;;;10.30;99.90;;;;;;4969731;28;20042;-84
2022/05/29 04:54:23;;;;;;;14.60;3.03;;;10.10;99.90;;;;;;4968307;28;20035;-82
2022/05/29 04:56:50;;;;;;;13.65;2.80;;;10.10;99.90;;;;;;4988327;28;20034;-85
2022/05/29 04:59:16;;;;;;;14.30;2.90;;;10.20;99.90;;;;;;4949506;28;20076;-84
2022/05/29 05:01:42;;;;;;;16.38;2.90;;;10.20;99.90;;;;;;4970488;28;20034;-84
2022/05/29 05:04:08;;;;;;;13.57;2.88;;;10.20;99.90;;;;;;4989285;28;20120;-84
2022/05/29 05:06:34;;;;;;;12.90;2.88;;;10.10;99.90;;;;;;4982765;28;20047;-84
2022/05/29 05:09:01;;;;;;;16.17;3.08;;;10.20;99.90;;;;;;4971024;28;20476;-85
2022/05/29 05:11:27;;;;;;;15.82;3.35;;;10.20;99.90;;;;;;4987282;28;20520;-85
2022/05/29 05:13:53;;;;;;;12.98;2.65;;;10.20;99.90;;;;;;4986144;28;20048;-85
2022/05/29 05:16:19;;;;;;;16.88;3.03;;;10.30;99.90;;;;;;4987384;28;20488;-85
2022/05/29 05:18:44;;;;;;;14.88;3.10;;;10.20;99.90;;;;;;4985470;28;20077;-83
2022/05/29 05:21:10;;;;;;;14.18;3.38;;;10.30;99.90;;;;;;4983507;28;20042;-83
2022/05/29 05:23:41;;;;;;;10.68;2.65;;;10.30;99.90;;;;;;4971018;28;20617;-83
2022/05/29 05:26:15;;;;;;;12.43;3.28;;;10.30;99.90;;;;;;4984350;28;20049;-84
2022/05/29 05:28:41;;;;;;;20.73;4.20;;;10.40;99.90;;;;;;4970672;28;20068;-82
2022/05/29 05:31:07;;;;;;;16.30;3.30;;;10.30;99.90;;;;;;4974172;28;20038;-83
2022/05/29 05:33:33;;;;;;;18.77;3.15;;;10.30;99.90;;;;;;5000480;28;20528;-85
2022/05/29 05:35:59;;;;;;;16.70;3.20;;;10.40;99.90;;;;;;5003961;28;20038;-83
2022/05/29 05:38:25;;;;;;;17.88;3.30;;;10.40;99.90;;;;;;4985135;28;20123;-83
2022/05/29 05:40:51;;;;;;;14.45;2.80;;;;;;;;;;4965394;28;20033;-84
2022/05/29 05:43:19;;;;;;;16.77;2.97;;;10.40;99.90;;;;;;4984783;28;20038;-84
2022/05/29 05:45:45;;;;;;;15.25;2.95;;;10.40;99.90;;;;;;4970524;28;20045;-84
2022/05/29 05:48:11;;;;;;;15.43;3.25;;;10.40;99.90;;;;;;4988091;28;20053;-84
2022/05/29 05:50:45;;;;;;;17.88;3.28;;;;;;;;;;4984941;28;20061;-84
2022/05/29 05:53:11;;;;;;;15.43;2.95;;;10.40;99.90;;;;;;4988173;28;20054;-84
2022/05/29 05:55:39;;;;;;;11.43;2.70;;;10.40;99.90;;;;;;4985717;28;20108;-85
2022/05/29 05:58:05;;;;;;;16.02;3.40;;;10.50;99.90;;;;;;4988748;28;20400;-84
2022/05/29 06:00:33;;;;;;;14.45;3.05;;;10.60;99.90;;;;;;4984057;28;20046;-85
2022/05/29 06:02:59;;;;;;;14.93;2.72;;;10.60;99.90;;;;;;4971304;28;20504;-83
2022/05/29 06:05:26;;;;;;;15.43;2.90;;;10.70;99.90;;;;;;4988207;28;20534;-83
2022/05/29 06:07:52;;;;;;;14.13;3.22;;;10.70;99.90;;;;;;4987319;28;20506;-84
2022/05/29 06:10:21;;;;;;;19.30;3.42;;;10.80;99.90;;;;;;4985952;28;20119;-85
2022/05/29 06:12:47;;;;;;;13.82;2.72;;;10.80;99.90;;;;;;4958902;28;20049;-84
2022/05/29 06:15:13;;;;;;;12.52;2.80;;;10.80;99.90;;;;;;4986266;28;20042;-85
2022/05/29 06:17:39;;;;;;;12.57;2.97;;;10.80;99.90;;;;;;4987797;28;20042;-86
2022/05/29 06:20:09;;;;;;;13.23;2.72;;;10.80;99.90;;;;;;4970067;28;20504;-87
2022/05/29 06:22:37;;;;;;;16.73;3.25;;;10.90;99.90;;;;;;4967126;28;20041;-85
2022/05/29 06:25:03;;;;;;;12.45;2.80;;;10.90;99.90;;;;;;5003324;28;20113;-84
2022/05/29 06:27:29;;;;;;;14.80;2.90;;;11.00;99.90;;;;;;4967356;28;20077;-84
2022/05/29 06:29:58;;;;;;;11.65;2.70;;;;;;;;;;4986757;28;20042;-84
2022/05/29 06:32:27;;;;;;;12.55;2.65;;;11.00;99.90;;;;;;4989295;28;20037;-84
2022/05/29 06:34:53;;;;;;;16.02;2.88;;;11.00;99.90;;;;;;4994026;28;20406;-85
2022/05/29 06:37:19;;;;;;;16.00;3.08;;;10.30;99.90;;;;;;4950255;28;20046;-84
2022/05/29 06:39:47;;;;;;;10.27;2.83;;;9.50;99.90;;;;;;4969142;28;20042;-84
2022/05/29 06:42:14;;;;;;;12.30;2.70;;;11.10;99.90;;;;;;4987005;28;20631;-84
2022/05/29 06:44:41;;;;;;;16.42;2.95;;;11.10;99.90;;;;;;4967797;28;20041;-85
2022/05/29 06:47:07;;;;;;;11.77;2.60;;;8.90;99.90;;;;;;4989284;28;20081;-85
2022/05/29 06:49:34;;;;;;;13.38;2.40;;;10.90;99.90;;;;;;4978026;28;20086;-85
2022/05/29 06:52:00;;;;;;;13.75;2.33;;;10.80;99.90;;;;;;4984918;28;20030;-84
2022/05/29 06:54:26;;;;;;;12.05;2.35;;;10.90;99.90;;;;;;4985072;28;20413;-85
2022/05/29 06:56:55;;;;;;;10.93;2.80;;;10.80;99.90;;;;;;4969020;28;20042;-85
2022/05/29 06:59:24;;;;;;;11.23;2.40;;;10.80;99.90;;;;;;4955713;28;20034;-84
2022/05/29 07:07:22;;;;;;;12.95;2.28;;;10.80;99.90;;;;;;4979909;28;20347;-84
2022/05/29 07:09:56;;;;;;;11.38;2.45;;;11.80;99.90;;;;;;4993309;28;20121;-85
2022/05/29 07:12:27;;;;;;;11.23;2.78;;;10.80;99.90;;;;;;4962190;28;20505;-85
2022/05/29 07:15:05;;;;;;;10.05;2.10;;;11.10;99.90;;;;;;4954404;28;20576;-85
2022/05/29 07:17:31;;;;;;;11.80;2.10;;;10.70;99.90;;;;;;4983580;28;20038;-85
2022/05/29 07:20:04;;;;;;;7.60;1.98;;;11.90;99.90;;;;;;4949399;28;20085;-82
2022/05/29 07:22:32;;;;;;;8.88;2.20;;;10.60;99.90;;;;;;4969503;28;20058;-84
2022/05/29 07:24:58;;;;;;;8.77;1.90;;;10.60;99.90;;;;;;4960560;28;20150;-85
2022/05/29 07:27:25;;;;;;;8.80;2.00;;;10.50;99.90;;;;;;4980193;28;20045;-84
2022/05/29 07:30:04;;;;;;;10.95;2.33;;;10.50;99.90;;;;;;4971507;28;20054;-85
2022/05/29 07:32:30;;;;;;;8.13;2.00;;;10.40;99.90;;;;;;4986581;28;20047;-84
2022/05/29 07:34:59;;;;;;;12.98;2.28;;;10.30;99.90;;;;;;4957571;28;20039;-84
2022/05/29 07:37:28;;;;;;;10.25;2.25;;;10.20;99.90;;;;;;4967692;28;20043;-85
2022/05/29 07:39:54;;;;;;;10.65;2.17;;;10.20;99.90;;;;;;4962802;28;20045;-85
2022/05/29 07:45:09;;;;;;;11.32;2.58;;;10.20;99.90;;;;;;4981565;28;20100;-85
2022/05/29 07:47:45;;;;;;;10.90;2.58;;;10.20;99.90;;;;;;4954257;28;20050;-85
2022/05/29 07:50:23;;;;;;;13.38;2.80;;;10.40;99.90;;;;;;4972470;28;20045;-85
2022/05/29 07:52:54;;;;;;;12.60;2.72;;;10.10;99.90;;;;;;4956585;28;20049;-85
2022/05/29 07:55:21;;;;;;;13.38;2.90;;;10.50;99.90;;;;;;4936416;28;20336;-85
2022/05/29 07:57:50;;;;;;;10.93;2.20;;;;;;;;;;4971642;28;20066;-85
2022/05/29 08:00:20;;;;;;;14.32;2.42;;;;;;;;;;4952422;28;20042;-86
2022/05/29 08:02:46;;;;;;;10.43;2.20;;;10.70;99.90;;;;;;4973223;28;20826;-84
2022/05/29 08:05:15;;;;;;;8.95;2.20;;;10.80;99.90;;;;;;4982728;28;20101;-86
2022/05/29 08:07:42;;;;;;;8.55;1.83;;;10.80;99.90;;;;;;4956782;28;20065;-85
2022/05/29 08:10:12;;;;;;;10.65;2.25;;;10.90;99.90;;;;;;4986958;28;20334;-84
2022/05/29 08:12:39;;;;;;;8.73;1.98;;;10.90;99.90;;;;;;4976505;28;20110;-86
2022/05/29 08:15:10;;;;;;;8.80;2.05;;;10.80;99.90;;;;;;4984505;28;20074;-84
2022/05/29 08:17:37;;;;;;;8.93;2.00;;;10.80;99.90;;;;;;4968277;28;20096;-84
2022/05/29 08:20:11;;;;;;;10.32;1.92;;;10.80;99.90;;;;;;4955729;28;20056;-85
2022/05/29 08:22:37;;;;;;;8.38;1.70;;;11.30;99.90;;;;;;4966435;28;20127;-87
2022/05/29 08:30:37;;;;;;;10.90;2.33;;;10.60;99.90;;;;;;4981829;28;20054;-85
2022/05/29 08:33:05;;;;;;;8.90;2.25;;;10.60;99.90;;;;;;4966526;28;20108;-84
2022/05/29 08:35:35;;;;;;;16.15;2.47;;;10.50;99.90;;;;;;4966293;28;20466;-84
2022/05/29 08:38:02;;;;;;;11.50;2.45;;;10.40;99.90;;;;;;4966273;28;20404;-85
2022/05/29 08:40:35;;;;;;;10.57;2.38;;;10.40;99.90;;;;;;4989940;28;20038;-85
2022/05/29 08:43:00;;;;;;;12.07;2.47;;;10.30;99.90;;;;;;4994611;28;20176;-86
2022/05/29 08:45:33;;;;;;;11.20;2.30;;;10.40;99.90;;;;;;4969575;28;20050;-86
2022/05/29 08:48:03;;;;;;;11.38;2.20;;;10.30;99.90;;;;;;4994076;28;20047;-84
2022/05/29 08:51:02;;;;;;;14.55;2.35;;;10.10;99.90;;;;;;4984465;28;20057;-86
2022/05/29 08:54:20;;;;;;;13.13;2.20;;;10.60;99.90;;;;;;4963209;28;20374;-85
2022/05/29 08:57:11;;;;;;;11.05;2.10;;;10.90;99.90;;;;;;4918232;28;20424;-85
2022/05/29 08:59:48;;;;;;;9.52;1.88;;;11.00;99.90;;;;;;4985616;28;20034;-87
2022/05/29 09:02:35;;;;;;;8.55;1.90;;;9.50;99.90;;;;;;4980741;28;20500;-84
2022/05/29 09:05:31;;;;;;;6.95;1.80;;;11.30;99.90;;;;;;4981138;28;20047;-84
2022/05/29 09:08:25;;;;;;;6.95;1.70;;;12.60;99.90;;;;;;4984283;28;20065;-86
2022/05/29 09:10:56;;;;;;;8.40;1.73;;;11.50;99.90;;;;;;4977631;28;20078;-85
2022/05/29 09:13:48;;;;;;;9.02;1.67;;;11.50;99.90;;;;;;4964574;28;20042;-85
2022/05/29 09:16:18;;;;;;;9.60;1.67;;;11.60;99.90;;;;;;4996209;28;20042;-86
2022/05/29 09:19:13;;;;;;;9.25;2.22;;;11.60;99.90;;;;;;4965705;28;20492;-84
2022/05/29 09:22:02;;;;;;;8.43;1.88;;;11.50;99.90;;;;;;4967610;28;20409;-85
2022/05/29 09:24:44;;;;;;;11.00;1.90;;;11.40;99.90;;;;;;4984113;28;20144;-85
2022/05/29 09:27:11;;;;;;;8.55;1.70;;;11.20;99.90;;;;;;4987980;28;20509;-85
2022/05/29 09:29:37;;;;;;;8.82;1.90;;;;;;;;;;4982330;28;20043;-84
2022/05/29 09:32:14;;;;;;;7.03;1.90;;;11.10;99.90;;;;;;4976478;28;20046;-82
2022/05/29 09:34:43;;;;;;;9.32;1.85;;;11.10;99.90;;;;;;4982026;28;20049;-83
2022/05/29 09:37:52;;;;;;;8.60;2.00;;;11.00;99.90;;;;;;4977545;28;20509;-84
2022/05/29 09:40:31;;;;;;;11.43;2.17;;;11.30;99.90;;;;;;4927418;28;20502;-86
2022/05/29 09:43:18;;;;;;;8.32;1.80;;;11.40;99.90;;;;;;4975342;28;20073;-85
2022/05/29 09:45:46;;;;;;;7.88;2.25;;;11.60;99.90;;;;;;4982948;28;20504;-85
2022/05/29 09:51:28;;;;;;;8.57;1.90;;;11.80;99.90;;;;;;4978855;28;20046;-84
2022/05/29 09:54:03;;;;;;;11.40;2.20;;;11.90;99.90;;;;;;4983305;28;20039;-85
2022/05/29 09:56:32;;;;;;;6.60;1.60;;;12.00;99.90;;;;;;5001696;28;20095;-85
2022/05/29 09:59:11;;;;;;;9.25;1.80;;;12.10;99.90;;;;;;4977497;28;20129;-84
2022/05/29 10:01:44;;;;;;;9.18;1.90;;;12.20;99.90;;;;;;4974120;28;20042;-86
2022/05/29 10:04:33;;;;;;;10.00;1.95;;;9.80;99.90;;;;;;4983647;28;20563;-86
2022/05/29 10:07:10;;;;;;;8.65;1.90;;;12.40;99.90;;;;;;4958658;28;20081;-86
2022/05/29 10:10:05;;;;;;;10.43;1.80;;;12.40;99.90;;;;;;4981866;28;20077;-86
2022/05/29 10:13:06;;;;;;;9.10;1.90;;;12.40;99.90;;;;;;4961892;28;20049;-85
2022/05/29 10:15:40;;;;;;;7.25;1.70;;;12.40;99.90;;;;;;4936138;28;20481;-85
2022/05/29 10:18:31;;;;;;;9.73;2.08;;;12.40;99.90;;;;;;4981859;28;20053;-85
2022/05/29 10:21:11;;;;;;;6.93;1.60;;;12.40;99.90;;;;;;4996704;28;20085;-85
2022/05/29 10:23:42;;;;;;;8.98;2.03;;;12.60;99.90;;;;;;5001338;28;20395;-86
2022/05/29 10:26:30;;;;;;;12.50;1.92;;;12.30;99.90;;;;;;4983233;28;20073;-84
2022/05/29 10:28:59;;;;;;;13.70;2.38;;;12.30;99.90;;;;;;4971800;28;20108;-85
2022/05/29 10:31:33;;;;;;;11.82;2.05;;;12.20;99.90;;;;;;4978985;28;20046;-85
2022/05/29 10:34:13;;;;;;;10.60;2.03;;;13.50;99.90;;;;;;4984146;28;20404;-85
2022/05/29 10:36:40;;;;;;;10.75;2.45;;;12.20;99.90;;;;;;4972753;28;20489;-85
2022/05/29 10:39:32;;;;;;;9.35;2.35;;;12.10;99.90;;;;;;4982915;28;20417;-86
2022/05/29 10:42:01;;;;;;;7.13;1.67;;;12.20;99.90;;;;;;4969475;28;20397;-86
2022/05/29 10:44:46;;;;;;;7.35;1.92;;;12.30;99.90;;;;;;4983450;28;20128;-84
2022/05/29 10:47:53;;;;;;;10.05;2.20;;;12.10;99.90;;;;;;4982044;28;20041;-84
2022/05/29 10:50:44;;;;;;;9.52;1.95;;;12.00;99.90;;;;;;4960118;28;20137;-86
2022/05/29 10:53:22;;;;;;;5.90;1.63;;;11.90;99.90;;;;;;4985446;28;20206;-84
2022/05/29 10:55:59;;;;;;;8.98;1.90;;;11.80;99.90;;;;;;4981712;28;20133;-85
2022/05/29 10:58:42;;;;;;;10.43;2.20;;;11.70;99.90;;;;;;4985842;28;20429;-84
2022/05/29 11:04:45;;;;;;;8.40;1.92;;;11.50;99.90;;;;;;4986975;28;20046;-85
2022/05/29 11:07:42;;;;;;;16.02;2.15;;;11.60;99.90;;;;;;4967455;28;20501;-85
2022/05/29 11:10:36;;;;;;;9.20;2.17;;;11.80;99.90;;;;;;4992582;28;20046;-85
2022/05/29 11:13:21;;;;;;;10.50;2.50;;;12.10;99.90;;;;;;4984210;28;20085;-86
2022/05/29 11:16:21;;;;;;;11.57;2.33;;;12.30;99.90;;;;;;4983722;28;20294;-85
2022/05/29 11:19:22;;;;;;;10.05;2.33;;;12.40;99.90;;;;;;4980818;28;20057;-85
2022/05/29 11:22:27;;;;;;;8.23;2.15;;;12.50;99.90;;;;;;4983258;28;20046;-84
2022/05/29 11:25:18;;;;;;;10.70;2.20;;;12.40;99.90;;;;;;4987948;28;20404;-84
2022/05/29 11:27:46;;;;;;;12.13;2.08;;;12.30;99.90;;;;;;4985892;28;20520;-86
2022/05/29 11:30:30;;;;;;;9.25;2.03;;;12.20;99.90;;;;;;4986104;28;20101;-85
2022/05/29 11:33:37;;;;;;;10.35;2.10;;;12.10;99.90;;;;;;4971468;28;20150;-86
2022/05/29 11:36:21;;;;;;;12.55;1.98;;;12.20;99.90;;;;;;4963733;28;20583;-84
2022/05/29 11:39:06;;;;;;;8.27;1.80;;;12.30;99.90;;;;;;4990089;28;20065;-87
2022/05/29 11:41:40;;;;;;;8.48;2.05;;;12.40;99.90;;;;;;4985759;28;20185;-84
2022/05/29 11:44:18;;;;;;;7.63;1.85;;;12.60;99.90;;;;;;4990171;28;20218;-86
2022/05/29 11:53:42;;;;;;;11.35;2.00;;;13.10;99.90;;;;;;5002971;28;20100;-86
2022/05/29 11:56:19;;;;;;;9.85;2.10;;;13.10;99.90;;;;;;4965153;28;20046;-84
2022/05/29 11:59:01;;;;;;;9.77;1.95;;;13.00;99.90;;;;;;5004343;28;20034;-85
2022/05/29 12:01:36;;;;;;;9.27;1.92;;;12.80;99.90;;;;;;4969249;28;20038;-85
2022/05/29 12:04:13;;;;;;;9.77;1.90;;;12.60;99.90;;;;;;4986952;28;20038;-84
2022/05/29 12:06:53;;;;;;;13.18;2.67;;;12.40;99.90;;;;;;4995481;28;20517;-86
2022/05/29 12:09:26;;;;;;;11.10;2.38;;;12.40;99.90;;;;;;4980797;28;20054;-87
2022/05/29 12:12:22;;;;;;;10.82;1.90;;;12.20;99.90;;;;;;4984505;28;20052;-86
2022/05/29 12:14:58;;;;;;;9.77;2.08;;;11.70;99.90;;;;;;4977636;28;20050;-86
2022/05/29 12:17:28;;;;;;;9.68;1.98;;;12.00;99.90;;;;;;4964171;28;20043;-85
2022/05/29 12:20:03;;;;;;;6.40;1.90;;;11.90;99.90;;;;;;4982440;28;20224;-84
2022/05/29 12:23:03;;;;;;;10.82;1.60;;;11.90;99.90;;;;;;4965722;28;20417;-86
2022/05/29 12:25:32;;;;;;;7.93;1.70;;;;;;;;;;4964882;28;20136;-86
2022/05/29 12:28:03;;;;;;;10.93;2.10;;;12.00;99.90;;;;;;4990920;28;20263;-86
2022/05/29 12:30:35;;;;;;;9.88;2.00;;;12.10;99.90;;;;;;4984948;28;20046;-86
2022/05/29 12:33:11;;;;;;;12.20;2.22;;;12.10;99.90;;;;;;4975146;28;20043;-85
2022/05/29 12:35:49;;;;;;;11.98;2.92;;;12.20;99.90;;;;;;4977000;28;20472;-84
2022/05/29 12:38:45;;;;;;;10.07;2.28;;;12.10;99.90;;;;;;4979961;28;20059;-85
2022/05/29 12:41:38;;;;;;;11.43;2.05;;;11.80;99.90;;;;;;4982719;28;20038;-88
2022/05/29 12:44:23;;;;;;;8.57;2.00;;;11.50;99.90;;;;;;4635706;28;10000281;-84
2022/05/29 12:47:25;;;;;;;8.43;1.90;;;11.50;99.90;;;;;;4964670;28;20038;-86
2022/05/29 12:50:14;;;;;;;10.30;2.15;;;10.70;99.90;;;;;;4969926;28;20043;-84
2022/05/29 12:52:55;;;;;;;8.48;2.20;;;11.50;99.90;;;;;;4967607;28;20129;-85
2022/05/29 12:55:51;;;;;;;12.57;2.63;;;11.70;99.90;;;;;;4984870;28;20473;-85
2022/05/29 12:58:17;;;;;;;10.23;2.30;;;9.10;99.90;;;;;;4981192;28;20386;-85
2022/05/29 13:00:48;;;;;;;11.10;2.17;;;12.20;99.90;;;;;;4963319;28;20046;-85
2022/05/29 13:03:57;;;;;;;12.30;2.38;;;12.40;99.90;;;;;;4982928;28;20073;-86
2022/05/29 13:07:02;;;;;;;13.15;2.28;;;12.50;99.90;;;;;;4973421;28;20038;-86
2022/05/29 13:09:37;;;;;;;11.20;2.30;;;12.50;99.90;;;;;;4986785;28;20448;-85
2022/05/29 13:12:14;;;;;;;13.00;2.20;;;12.50;99.90;;;;;;4987168;28;20050;-86
2022/05/29 13:14:50;;;;;;;10.68;2.22;;;12.50;99.90;;;;;;4984500;28;20042;-85
2022/05/29 13:17:26;;;;;;;11.75;2.25;;;12.50;99.90;;;;;;4982174;28;20070;-84
2022/05/29 13:20:06;;;;;;;13.45;2.53;;;12.50;99.90;;;;;;4997145;28;20046;-84
2022/05/29 13:22:49;;;;;;;9.52;2.15;;;12.60;99.90;;;;;;4999913;28;20065;-84
2022/05/29 13:25:17;;;;;;;11.65;2.78;;;12.60;99.90;;;;;;5002045;28;20045;-85
2022/05/29 13:27:43;;;;;;;11.30;2.47;;;12.60;99.90;;;;;;4987937;28;20543;-85
2022/05/29 13:30:37;;;;;;;14.10;2.75;;;12.60;99.90;;;;;;4989703;28;20366;-84
2022/05/29 13:33:28;;;;;;;8.88;2.05;;;12.60;99.90;;;;;;4979862;28;20664;-84
2022/05/29 13:36:04;;;;;;;9.40;2.22;;;12.60;99.90;;;;;;5004817;28;20033;-85
2022/05/29 13:38:50;;;;;;;10.57;2.50;;;12.60;99.90;;;;;;4958311;28;20077;-84
2022/05/29 13:41:53;;;;;;;11.95;2.47;;;12.60;99.90;;;;;;4958257;28;20133;-84
2022/05/29 13:44:47;;;;;;;12.68;2.33;;;14.20;99.90;;;;;;4997550;28;20038;-84
2022/05/29 13:47:25;;;;;;;12.30;2.47;;;;;;;;;;4987731;28;20476;-85
2022/05/29 13:50:03;;;;;;;8.93;2.00;;;12.90;99.90;;;;;;4968000;28;20054;-85
2022/05/29 13:52:41;;;;;;;12.77;2.20;;;12.80;99.90;;;;;;4982357;28;20535;-84
2022/05/29 13:55:11;;;;;;;13.05;2.30;;;13.10;99.90;;;;;;4998885;28;20374;-84
2022/05/29 14:03:58;;;;;;;9.10;1.95;;;13.10;99.90;;;;;;4989413;28;20497;-84
2022/05/29 14:06:30;;;;;;;13.05;2.22;;;14.50;99.90;;;;;;4964001;28;20070;-86
2022/05/29 14:09:12;;;;;;;7.93;2.10;;;13.00;99.90;;;;;;4977311;28;20054;-85